Terminal Aerodrome Forecast
Issued by NWS

Home | Current Version | Previous Version | Text Only | Print | Product List | Glossary On
Versions: 1 2 3 4 5 6 7 8 9 10 11 12 13 14 15 16 17 18 19 20 21 22 23 24 25
000
FTUS46 KSGX 271721
TAFSAN
TAF
KSAN 271721Z 2718/2824 VRB05KT P6SM FEW009 SCT200
     FM271900 29010KT P6SM SCT250
     FM280200 VRB05KT P6SM FEW009
     FM281000 VRB04KT P6SM BKN009
     FM281600 VRB04KT P6SM SCT012
     FM282000 29010KT P6SM FEW010 SCT200=

USA.gov is the U.S. government's official web portal to all federal, state and local government web resources and services.